COLLECTOR_METAR_EDDF

EDDF 251320Z VRB03KT 9999 FEW049 27/13 Q1013 NOSIG
EDDF 251100Z 2512/2618 21006KT 9999 SCT035